createdAt,value
2018-12-27T00:01:36.590Z,75.20
2018-12-27T00:03:41.257Z,75.10
2018-12-27T00:05:52.310Z,74.80
2018-12-27T00:07:57.226Z,74.60
2018-12-27T00:10:01.571Z,74.50
2018-12-27T00:12:05.989Z,74.20
2018-12-27T00:14:10.386Z,74.50
2018-12-27T00:16:14.759Z,74.60
2018-12-27T00:18:19.147Z,74.70
2018-12-27T00:20:23.619Z,74.80
2018-12-27T00:22:27.979Z,74.90
2018-12-27T00:24:32.387Z,74.40
2018-12-27T00:26:37.097Z,74.50
2018-12-27T00:28:41.561Z,74.60
2018-12-27T00:30:45.983Z,74.40
2018-12-27T00:32:50.403Z,74.60
2018-12-27T00:34:54.839Z,74.90
2018-12-27T00:36:59.200Z,74.80
2018-12-27T00:39:04.339Z,74.80
2018-12-27T00:41:08.660Z,74.10
2018-12-27T00:43:13.043Z,74.40
2018-12-27T00:45:17.450Z,74.60
2018-12-27T00:47:21.867Z,74.40
2018-12-27T00:49:26.317Z,74.20
2018-12-27T00:51:30.654Z,74.50
2018-12-27T00:53:35.107Z,74.50
2018-12-27T00:55:39.694Z,74.50
2018-12-27T00:57:44.064Z,74.60
2018-12-27T00:59:48.553Z,75.00
2018-12-27T01:01:52.902Z,75.10
2018-12-27T01:03:57.858Z,75.40
2018-12-27T01:06:02.244Z,75.60
2018-12-27T01:08:06.641Z,75.60
2018-12-27T01:10:11.442Z,75.80
2018-12-27T01:12:15.797Z,75.80
2018-12-27T01:14:20.184Z,76.60
2018-12-27T01:16:24.587Z,76.00
2018-12-27T01:18:28.985Z,75.50
2018-12-27T01:20:33.346Z,75.70
2018-12-27T01:22:37.743Z,75.60
2018-12-27T01:24:42.095Z,75.50
2018-12-27T01:26:46.515Z,75.40
2018-12-27T01:28:50.867Z,75.40
2018-12-27T01:30:57.033Z,74.80
2018-12-27T01:32:59.623Z,75.00
2018-12-27T01:35:03.972Z,75.00
2018-12-27T01:37:08.416Z,75.40
2018-12-27T01:39:12.870Z,75.40
2018-12-27T01:41:17.285Z,75.20
2018-12-27T01:43:21.646Z,76.10
2018-12-27T01:45:26.022Z,75.40
2018-12-27T01:47:30.515Z,75.40
2018-12-27T01:49:34.918Z,75.40
2018-12-27T01:51:39.275Z,75.50
2018-12-27T01:53:44.332Z,75.50
2018-12-27T01:55:48.772Z,75.40
2018-12-27T01:57:53.110Z,75.60
2018-12-27T01:59:57.593Z,75.70
2018-12-27T02:02:01.948Z,75.70
2018-12-27T02:04:06.336Z,76.10
2018-12-27T02:06:10.713Z,76.20
2018-12-27T02:08:15.070Z,76.30
2018-12-27T02:10:19.515Z,76.80
2018-12-27T02:12:23.873Z,76.50
2018-12-27T02:14:28.866Z,76.60
2018-12-27T02:16:33.274Z,77.00
2018-12-27T02:18:37.607Z,76.90
2018-12-27T02:20:41.948Z,77.00
2018-12-27T02:22:46.318Z,77.20
2018-12-27T02:24:50.729Z,77.30
2018-12-27T02:26:55.045Z,77.00
2018-12-27T02:28:59.431Z,77.20
2018-12-27T02:31:03.764Z,77.10
2018-12-27T02:33:08.086Z,77.10
2018-12-27T02:35:12.455Z,77.00
2018-12-27T02:37:17.683Z,77.00
2018-12-27T02:39:22.016Z,77.00
2018-12-27T02:41:26.366Z,76.40
2018-12-27T02:43:31.305Z,76.90
2018-12-27T02:45:35.722Z,76.80
2018-12-27T02:47:40.110Z,76.50
2018-12-27T02:49:45.069Z,76.40
2018-12-27T02:51:49.524Z,76.40
2018-12-27T02:53:53.861Z,76.60
2018-12-27T02:55:58.231Z,76.90
2018-12-27T02:58:02.616Z,76.80
2018-12-27T03:00:07.114Z,76.90
2018-12-27T03:02:11.465Z,76.90
2018-12-27T03:04:16.566Z,76.80
2018-12-27T03:06:20.944Z,76.80
2018-12-27T03:08:25.282Z,76.70
2018-12-27T03:10:29.689Z,76.40
2018-12-27T03:12:34.051Z,76.40
2018-12-27T03:14:38.456Z,76.80
2018-12-27T03:16:42.808Z,76.10
2018-12-27T03:18:47.178Z,75.90
2018-12-27T03:20:51.541Z,76.10
2018-12-27T03:22:55.905Z,76.40
2018-12-27T03:25:00.317Z,76.50
2018-12-27T03:27:04.628Z,76.50
2018-12-27T03:29:09.037Z,76.60
2018-12-27T03:31:13.413Z,76.70
2018-12-27T03:33:17.898Z,76.70
2018-12-27T03:35:22.246Z,76.70
2018-12-27T03:37:26.581Z,76.90
2018-12-27T03:39:30.943Z,76.90
2018-12-27T03:41:35.383Z,76.50
2018-12-27T03:43:39.732Z,76.30
2018-12-27T03:45:44.101Z,76.30
2018-12-27T03:47:51.487Z,76.30
2018-12-27T03:49:55.839Z,76.20
2018-12-27T03:52:00.202Z,76.20
2018-12-27T03:54:04.562Z,76.00
2018-12-27T03:56:08.922Z,75.40
2018-12-27T03:58:13.295Z,75.10
2018-12-27T04:00:18.456Z,75.20
2018-12-27T04:02:22.831Z,75.30
2018-12-27T04:04:27.164Z,75.50
2018-12-27T04:06:31.521Z,75.70
2018-12-27T04:08:35.997Z,75.70
2018-12-27T04:10:40.403Z,75.60
2018-12-27T04:12:44.770Z,75.50
2018-12-27T04:14:50.083Z,75.80
2018-12-27T04:16:54.521Z,75.80
2018-12-27T04:18:58.874Z,75.80
2018-12-27T04:21:03.406Z,75.90
2018-12-27T04:23:07.827Z,76.10
2018-12-27T04:25:12.298Z,76.00
2018-12-27T04:27:16.669Z,75.90
2018-12-27T04:29:21.100Z,76.20
2018-12-27T04:31:25.642Z,76.20
2018-12-27T04:33:30.132Z,76.00
2018-12-27T04:35:34.723Z,76.30
2018-12-27T04:37:39.140Z,76.70
2018-12-27T04:39:43.544Z,76.40
2018-12-27T04:41:48.155Z,76.50
2018-12-27T04:43:52.649Z,76.40
2018-12-27T04:45:57.038Z,76.60
2018-12-27T04:48:01.394Z,76.50
2018-12-27T04:50:06.157Z,76.50
2018-12-27T04:52:10.497Z,76.70
2018-12-27T04:54:14.862Z,76.70
2018-12-27T04:56:19.343Z,76.70
2018-12-27T04:58:23.719Z,77.20
2018-12-27T05:00:28.087Z,76.90
2018-12-27T05:02:32.481Z,76.50
2018-12-27T05:04:36.997Z,76.40
2018-12-27T05:06:41.381Z,76.40
2018-12-27T05:08:45.862Z,76.40
2018-12-27T05:10:50.299Z,76.40
2018-12-27T05:12:54.648Z,76.20
2018-12-27T05:14:59.037Z,76.20
2018-12-27T05:17:03.410Z,76.20
2018-12-27T05:19:07.882Z,76.30
2018-12-27T05:21:12.331Z,76.50
2018-12-27T05:23:16.731Z,76.70
2018-12-27T05:25:21.129Z,76.50
2018-12-27T05:27:26.434Z,76.70
2018-12-27T05:29:30.767Z,76.70
2018-12-27T05:31:35.133Z,77.00
2018-12-27T05:33:39.612Z,76.60
2018-12-27T05:35:44.029Z,76.90
2018-12-27T05:37:48.382Z,77.00
2018-12-27T05:39:52.754Z,77.00
2018-12-27T05:41:57.108Z,76.70
2018-12-27T05:44:01.504Z,76.60
2018-12-27T05:46:05.921Z,76.60
2018-12-27T05:48:10.273Z,76.80
2018-12-27T05:50:14.672Z,77.00
2018-12-27T05:52:19.021Z,76.90
2018-12-27T05:54:23.507Z,76.90
2018-12-27T05:56:27.909Z,77.00
2018-12-27T05:58:32.282Z,76.90
2018-12-27T06:00:36.829Z,76.90
2018-12-27T06:02:41.308Z,76.80
2018-12-27T06:04:45.669Z,76.90
2018-12-27T06:06:50.098Z,76.90
2018-12-27T06:08:54.508Z,77.50
2018-12-27T06:10:58.943Z,76.90
2018-12-27T06:13:03.372Z,77.50
2018-12-27T06:15:07.901Z,76.70
2018-12-27T06:17:12.364Z,76.80
2018-12-27T06:19:16.815Z,76.70
2018-12-27T06:21:21.203Z,76.80
2018-12-27T06:23:25.547Z,77.00
2018-12-27T06:25:29.986Z,77.20
2018-12-27T06:27:34.375Z,77.30
2018-12-27T06:29:38.967Z,77.30
2018-12-27T06:31:43.329Z,77.30
2018-12-27T06:33:47.787Z,77.30
2018-12-27T06:35:52.113Z,77.40
2018-12-27T06:37:57.687Z,77.40
2018-12-27T06:40:02.084Z,77.40
2018-12-27T06:42:06.451Z,77.30
2018-12-27T06:44:10.861Z,77.00
2018-12-27T06:46:15.271Z,77.10
2018-12-27T06:48:19.710Z,77.20
2018-12-27T06:50:24.162Z,77.00
2018-12-27T06:52:28.539Z,76.80
2018-12-27T06:54:32.918Z,77.00
2018-12-27T06:56:37.352Z,76.80
2018-12-27T06:58:41.826Z,77.10
2018-12-27T07:00:46.247Z,77.00
2018-12-27T07:02:50.612Z,77.00
2018-12-27T07:04:55.719Z,77.00
2018-12-27T07:07:00.137Z,77.10
2018-12-27T07:09:06.886Z,77.30
2018-12-27T07:11:11.261Z,77.30
2018-12-27T07:13:16.433Z,77.30
2018-12-27T07:15:20.898Z,77.40
2018-12-27T07:17:26.268Z,77.30
2018-12-27T07:19:30.635Z,77.40
2018-12-27T07:21:35.041Z,77.40
2018-12-27T07:23:39.511Z,77.40
2018-12-27T07:25:43.945Z,77.60
2018-12-27T07:27:48.329Z,77.60
2018-12-27T07:29:52.764Z,77.50
2018-12-27T07:31:57.149Z,77.80
2018-12-27T07:34:01.514Z,77.70
2018-12-27T07:36:05.942Z,77.40
2018-12-27T07:38:10.323Z,77.70
2018-12-27T07:40:14.731Z,77.40
2018-12-27T07:42:19.817Z,77.10
2018-12-27T07:44:24.606Z,77.20
2018-12-27T07:46:28.981Z,77.30
2018-12-27T07:48:33.336Z,77.40
2018-12-27T07:50:37.764Z,77.60
2018-12-27T07:52:42.548Z,77.70
2018-12-27T07:54:46.927Z,77.50
2018-12-27T07:56:51.314Z,77.90
2018-12-27T07:58:55.764Z,77.90
2018-12-27T08:01:00.192Z,78.10
2018-12-27T08:03:04.559Z,78.10
2018-12-27T08:05:08.933Z,78.10
2018-12-27T08:07:13.355Z,78.20
2018-12-27T08:09:17.730Z,78.30
2018-12-27T08:11:22.853Z,78.30
2018-12-27T08:13:27.373Z,78.40
2018-12-27T08:15:31.888Z,78.40
2018-12-27T08:17:36.305Z,78.40
2018-12-27T08:19:41.313Z,78.30
2018-12-27T08:21:45.857Z,78.20
2018-12-27T08:23:50.282Z,78.30
2018-12-27T08:25:54.689Z,78.30
2018-12-27T08:27:59.083Z,78.30
2018-12-27T08:30:03.701Z,78.50
2018-12-27T08:32:08.168Z,78.60
2018-12-27T08:34:12.743Z,78.60
2018-12-27T08:36:17.170Z,78.60
2018-12-27T08:38:21.589Z,78.70
2018-12-27T08:40:27.205Z,78.70
2018-12-27T08:42:31.633Z,78.70
2018-12-27T08:47:18.146Z,78.70
2018-12-27T08:49:22.649Z,78.60
2018-12-27T08:51:27.546Z,78.60
2018-12-27T08:53:31.955Z,78.60
2018-12-27T08:55:36.314Z,78.60
2018-12-27T08:57:41.350Z,78.60
2018-12-27T08:59:45.826Z,78.50
2018-12-27T09:01:50.338Z,78.60
2018-12-27T09:03:54.718Z,78.70
2018-12-27T09:05:59.121Z,78.50
2018-12-27T09:08:03.586Z,78.50
2018-12-27T09:10:08.030Z,78.50
2018-12-27T09:12:12.789Z,78.60
2018-12-27T09:14:17.205Z,78.40
2018-12-27T09:16:21.573Z,78.40
2018-12-27T09:18:27.094Z,78.40
2018-12-27T09:20:31.452Z,78.40
2018-12-27T09:22:35.794Z,78.50
2018-12-27T09:24:40.344Z,78.40
2018-12-27T09:26:44.702Z,78.60
2018-12-27T09:28:49.172Z,78.40
2018-12-27T09:30:53.580Z,78.60
2018-12-27T09:32:57.950Z,78.70
2018-12-27T09:35:02.335Z,78.80
2018-12-27T09:37:06.763Z,78.80
2018-12-27T09:39:11.095Z,78.80
2018-12-27T09:41:15.470Z,78.80
2018-12-27T09:43:19.859Z,78.70
2018-12-27T09:45:24.246Z,79.00
2018-12-27T09:47:29.359Z,79.00
2018-12-27T09:49:33.754Z,78.90
2018-12-27T09:51:38.127Z,78.70
2018-12-27T09:53:42.537Z,78.30
2018-12-27T09:55:47.021Z,78.30
2018-12-27T09:57:51.519Z,78.40
2018-12-27T09:59:55.892Z,78.40
2018-12-27T10:02:01.092Z,78.40
2018-12-27T10:04:05.448Z,78.50
2018-12-27T10:06:09.814Z,78.50
2018-12-27T10:08:14.358Z,78.40
2018-12-27T10:10:18.724Z,77.70
2018-12-27T10:12:23.075Z,77.50
2018-12-27T10:14:27.455Z,77.20
2018-12-27T10:16:32.466Z,77.60
2018-12-27T10:18:36.886Z,78.20
2018-12-27T10:20:41.266Z,78.00
2018-12-27T10:22:45.674Z,77.40
2018-12-27T10:24:50.059Z,77.50
2018-12-27T10:26:54.480Z,76.80
2018-12-27T10:28:58.962Z,76.90
2018-12-27T10:31:03.362Z,76.50
2018-12-27T10:33:07.919Z,76.00
2018-12-27T10:35:12.353Z,76.10
2018-12-27T10:37:16.751Z,76.50
2018-12-27T10:39:21.154Z,76.40
2018-12-27T10:41:25.506Z,76.40
2018-12-27T10:43:30.412Z,75.90
2018-12-27T10:45:35.596Z,75.90
2018-12-27T10:47:40.059Z,73.70
2018-12-27T10:49:44.410Z,73.20
2018-12-27T10:51:48.831Z,72.80
2018-12-27T10:53:53.300Z,72.90
2018-12-27T10:55:57.658Z,73.30
2018-12-27T10:58:02.087Z,73.50
2018-12-27T11:00:08.743Z,73.00
2018-12-27T11:02:13.119Z,72.70
2018-12-27T11:04:17.614Z,71.90
2018-12-27T11:06:21.944Z,70.40
2018-12-27T11:08:26.361Z,70.70
2018-12-27T11:10:30.879Z,69.70
2018-12-27T11:12:35.371Z,70.70
2018-12-27T11:14:39.710Z,70.70
2018-12-27T11:16:44.122Z,70.90
2018-12-27T11:18:48.458Z,70.10
2018-12-27T11:20:52.891Z,69.30
2018-12-27T11:22:57.273Z,69.30
2018-12-27T11:25:01.661Z,68.30
2018-12-27T11:27:06.066Z,67.50
2018-12-27T11:29:10.518Z,69.20
2018-12-27T11:31:14.909Z,69.30
2018-12-27T11:33:19.385Z,69.60
2018-12-27T11:35:23.821Z,68.40
2018-12-27T11:37:28.530Z,69.30
2018-12-27T11:39:33.490Z,70.40
2018-12-27T11:41:38.470Z,71.00
2018-12-27T11:43:42.886Z,69.90
2018-12-27T11:45:47.367Z,70.40
2018-12-27T11:47:51.841Z,69.80
2018-12-27T11:49:56.285Z,69.40
2018-12-27T11:52:00.895Z,68.30
2018-12-27T11:54:05.276Z,67.40
2018-12-27T11:56:09.670Z,66.90
2018-12-27T11:58:14.050Z,66.30
2018-12-27T12:00:19.442Z,60.10
2018-12-27T12:02:30.872Z,60.50
2018-12-27T12:04:28.198Z,62.10
2018-12-27T12:06:32.698Z,61.70
2018-12-27T12:08:37.144Z,63.20
2018-12-27T12:10:42.657Z,63.00
2018-12-27T12:12:47.154Z,62.40
2018-12-27T12:14:51.484Z,63.70
2018-12-27T12:16:56.032Z,66.50
2018-12-27T12:19:00.390Z,66.90
2018-12-27T12:21:04.830Z,68.20
2018-12-27T12:23:09.213Z,68.40
2018-12-27T12:25:13.586Z,68.30
2018-12-27T12:27:18.028Z,67.30
2018-12-27T12:29:22.437Z,68.30
2018-12-27T12:31:26.842Z,69.00
2018-12-27T12:33:31.250Z,68.70
2018-12-27T12:35:35.601Z,68.60
2018-12-27T12:37:40.155Z,67.80
2018-12-27T12:39:45.237Z,67.60
2018-12-27T12:41:49.692Z,67.50
2018-12-27T12:43:54.131Z,66.60
2018-12-27T12:45:58.514Z,66.80
2018-12-27T12:48:02.990Z,67.30
2018-12-27T12:50:08.519Z,66.00
2018-12-27T12:52:12.870Z,65.90
2018-12-27T12:54:23.933Z,67.40
2018-12-27T12:56:28.318Z,68.20
2018-12-27T12:58:32.961Z,68.50
2018-12-27T13:00:37.382Z,69.30
2018-12-27T13:02:41.784Z,68.20
2018-12-27T13:04:46.174Z,68.50
2018-12-27T13:06:50.637Z,68.50
2018-12-27T13:08:55.013Z,69.80
2018-12-27T13:10:59.462Z,68.80
2018-12-27T13:13:03.988Z,68.60
2018-12-27T13:15:08.443Z,69.20
2018-12-27T13:17:12.825Z,69.00
2018-12-27T13:19:17.219Z,69.00
2018-12-27T13:21:21.757Z,69.20
2018-12-27T13:23:26.170Z,68.80
2018-12-27T13:25:30.565Z,67.70
2018-12-27T13:27:35.598Z,68.60
2018-12-27T13:29:40.046Z,67.70
2018-12-27T13:31:44.465Z,68.60
2018-12-27T13:33:48.934Z,69.60
2018-12-27T13:35:53.344Z,69.60
2018-12-27T13:37:57.717Z,69.60
2018-12-27T13:40:02.218Z,69.20
2018-12-27T13:42:07.664Z,69.00
2018-12-27T13:44:12.090Z,68.40
2018-12-27T13:46:16.540Z,68.30
2018-12-27T13:48:21.047Z,67.40
2018-12-27T13:50:25.487Z,65.30
2018-12-27T13:52:29.922Z,66.10
2018-12-27T13:54:34.318Z,67.50
2018-12-27T13:56:38.714Z,67.70
2018-12-27T13:58:43.086Z,66.30
2018-12-27T14:00:47.540Z,66.70
2018-12-27T14:02:52.003Z,66.70
2018-12-27T14:04:56.403Z,66.20
2018-12-27T14:07:00.836Z,65.50
2018-12-27T14:09:06.901Z,64.50
2018-12-27T14:11:11.333Z,63.70
2018-12-27T14:13:15.749Z,63.10
2018-12-27T14:15:20.171Z,63.70
2018-12-27T14:17:26.518Z,64.50
2018-12-27T14:19:30.875Z,65.20
2018-12-27T14:21:35.245Z,65.60
2018-12-27T14:23:39.619Z,67.10
2018-12-27T14:25:44.025Z,67.20
2018-12-27T14:27:48.371Z,66.50
2018-12-27T14:29:53.470Z,66.50
2018-12-27T14:31:57.918Z,66.80
2018-12-27T14:34:02.307Z,68.30
2018-12-27T14:36:06.726Z,68.70
2018-12-27T14:38:11.115Z,68.80
2018-12-27T14:40:15.530Z,69.20
2018-12-27T14:42:19.887Z,68.90
2018-12-27T14:44:24.267Z,69.70
2018-12-27T14:46:28.692Z,69.30
2018-12-27T14:48:33.056Z,68.70
2018-12-27T14:50:37.555Z,67.80
2018-12-27T14:52:41.953Z,68.90
2018-12-27T14:54:46.409Z,70.00
2018-12-27T14:56:50.839Z,69.60
2018-12-27T14:58:56.022Z,70.50
2018-12-27T15:01:00.515Z,69.90
2018-12-27T15:03:04.967Z,70.00
2018-12-27T15:05:10.497Z,70.00
2018-12-27T15:07:14.877Z,69.60
2018-12-27T15:09:19.261Z,69.40
2018-12-27T15:11:23.637Z,68.90
2018-12-27T15:13:28.042Z,67.90
2018-12-27T15:15:32.486Z,68.70
2018-12-27T15:17:36.899Z,69.00
2018-12-27T15:19:41.276Z,68.30
2018-12-27T15:21:45.763Z,68.20
2018-12-27T15:23:50.130Z,68.40
2018-12-27T15:25:54.627Z,67.90
2018-12-27T15:27:59.533Z,67.80
2018-12-27T15:30:04.069Z,68.10
2018-12-27T15:32:08.685Z,68.00
2018-12-27T15:34:13.126Z,67.80
2018-12-27T15:36:17.559Z,67.40
2018-12-27T15:38:21.937Z,67.70
2018-12-27T15:40:26.451Z,68.20
2018-12-27T15:42:30.854Z,67.40
2018-12-27T15:44:35.225Z,67.50
2018-12-27T15:46:39.715Z,68.10
2018-12-27T15:48:44.110Z,68.20
2018-12-27T15:50:48.753Z,67.90
2018-12-27T15:52:52.858Z,67.90
2018-12-27T15:54:57.233Z,67.80
2018-12-27T15:57:02.661Z,68.20
2018-12-27T15:59:07.065Z,68.60
2018-12-27T16:01:11.634Z,68.00
2018-12-27T16:03:16.089Z,68.90
2018-12-27T16:05:20.594Z,67.90
2018-12-27T16:07:25.062Z,68.00
2018-12-27T16:09:29.459Z,68.00
2018-12-27T16:11:33.831Z,68.80
2018-12-27T16:13:38.313Z,69.60
2018-12-27T16:15:42.731Z,68.90
2018-12-27T16:17:47.189Z,67.90
2018-12-27T16:19:51.590Z,67.30
2018-12-27T16:21:56.108Z,67.90
2018-12-27T16:24:00.465Z,69.00
2018-12-27T16:26:04.966Z,69.10
2018-12-27T16:28:09.421Z,69.20
2018-12-27T16:30:13.862Z,68.80
2018-12-27T16:32:18.267Z,69.10
2018-12-27T16:34:22.650Z,69.70
2018-12-27T16:36:27.112Z,70.10
2018-12-27T16:38:32.240Z,70.50
2018-12-27T16:40:36.007Z,70.60
2018-12-27T16:42:40.399Z,70.70
2018-12-27T16:44:44.750Z,70.60
2018-12-27T16:46:49.135Z,70.80
2018-12-27T16:48:53.483Z,71.00
2018-12-27T16:50:57.944Z,70.60
2018-12-27T16:53:02.394Z,70.80
2018-12-27T16:55:06.814Z,70.60
2018-12-27T16:57:11.216Z,70.80
2018-12-27T16:59:15.635Z,70.60
2018-12-27T17:01:19.997Z,70.90
2018-12-27T17:03:24.412Z,70.70
2018-12-27T17:05:28.903Z,70.40
2018-12-27T17:07:33.275Z,71.10
2018-12-27T17:09:37.702Z,71.70
2018-12-27T17:11:42.125Z,71.30
2018-12-27T17:13:46.543Z,70.80
2018-12-27T17:15:50.966Z,71.00
2018-12-27T17:17:55.437Z,71.20
2018-12-27T17:19:59.798Z,70.80
2018-12-27T17:22:04.170Z,71.60
2018-12-27T17:24:08.875Z,71.40
2018-12-27T17:26:13.475Z,71.70
2018-12-27T17:28:17.928Z,71.80
2018-12-27T17:30:22.364Z,71.80
2018-12-27T17:32:26.892Z,71.10
2018-12-27T17:34:31.354Z,71.20
2018-12-27T17:36:35.843Z,71.60
2018-12-27T17:38:40.311Z,71.30
2018-12-27T17:40:44.932Z,71.30
2018-12-27T17:42:49.332Z,70.90
2018-12-27T17:44:53.819Z,70.00
2018-12-27T17:46:58.360Z,71.10
2018-12-27T17:49:02.795Z,70.60
2018-12-27T17:51:08.322Z,70.30
2018-12-27T17:53:12.897Z,70.20
2018-12-27T17:55:17.451Z,70.90
2018-12-27T17:57:21.939Z,70.10
2018-12-27T17:59:26.358Z,70.50
2018-12-27T18:01:30.774Z,70.70
2018-12-27T18:03:35.259Z,72.20
2018-12-27T18:05:39.695Z,72.20
2018-12-27T18:07:44.342Z,71.90
2018-12-27T18:09:48.800Z,71.20
2018-12-27T18:11:53.259Z,71.10
2018-12-27T18:13:57.732Z,70.90
2018-12-27T18:16:02.212Z,71.40
2018-12-27T18:18:06.676Z,71.50
2018-12-27T18:20:11.257Z,71.70
2018-12-27T18:22:15.804Z,71.70
2018-12-27T18:24:20.318Z,71.60
2018-12-27T18:26:24.803Z,72.10
2018-12-27T18:28:29.179Z,72.10
2018-12-27T18:30:33.723Z,72.60
2018-12-27T18:32:38.190Z,72.60
2018-12-27T18:34:42.676Z,72.20
2018-12-27T18:36:47.140Z,72.00
2018-12-27T18:38:51.661Z,71.90
2018-12-27T18:40:56.174Z,72.30
2018-12-27T18:43:00.695Z,72.10
2018-12-27T18:45:05.630Z,72.10
2018-12-27T18:47:10.060Z,72.20
2018-12-27T18:49:20.518Z,72.20
2018-12-27T18:51:19.175Z,72.00
2018-12-27T18:53:24.439Z,73.20
2018-12-27T18:55:30.203Z,73.00
2018-12-27T18:57:33.446Z,73.60
2018-12-27T18:59:37.837Z,73.70
2018-12-27T19:01:42.353Z,74.00
2018-12-27T19:03:46.861Z,73.90
2018-12-27T19:05:51.396Z,74.00
2018-12-27T19:07:55.883Z,73.00
2018-12-27T19:10:00.312Z,72.90
2018-12-27T19:12:15.779Z,74.20
2018-12-27T19:14:20.434Z,74.30
2018-12-27T19:16:24.833Z,74.00
2018-12-27T19:18:47.095Z,73.10
2018-12-27T19:20:55.730Z,73.10
2018-12-27T19:23:11.214Z,72.90
2018-12-27T19:25:15.682Z,72.80
2018-12-27T19:27:20.318Z,72.80
2018-12-27T19:29:24.848Z,72.90
2018-12-27T19:31:29.283Z,72.90
2018-12-27T19:33:33.767Z,73.10
2018-12-27T19:35:38.206Z,73.60
2018-12-27T19:37:42.695Z,73.50
2018-12-27T19:39:47.182Z,73.80
2018-12-27T19:41:51.677Z,74.10
2018-12-27T19:43:56.177Z,74.10
2018-12-27T19:46:00.613Z,73.10
2018-12-27T19:48:05.096Z,73.60
2018-12-27T19:50:09.638Z,73.90
2018-12-27T19:52:14.100Z,74.60
2018-12-27T19:54:19.618Z,74.50
2018-12-27T19:56:24.140Z,74.60
2018-12-27T19:58:28.576Z,74.50
2018-12-27T20:00:33.182Z,74.50
2018-12-27T20:02:37.681Z,74.70
2018-12-27T20:04:42.154Z,74.50
2018-12-27T20:06:46.692Z,74.40
2018-12-27T20:08:51.127Z,74.20
2018-12-27T20:10:55.612Z,74.10
2018-12-27T20:13:00.041Z,73.80
2018-12-27T20:15:04.710Z,74.20
2018-12-27T20:17:09.233Z,74.30
2018-12-27T20:19:13.708Z,74.30
2018-12-27T20:21:18.169Z,74.30
2018-12-27T20:23:23.270Z,74.30
2018-12-27T20:25:27.675Z,74.50
2018-12-27T20:27:32.118Z,74.60
2018-12-27T20:29:36.587Z,74.70
2018-12-27T20:31:41.074Z,74.70
2018-12-27T20:33:45.502Z,74.90
2018-12-27T20:35:49.877Z,75.20
2018-12-27T20:37:54.492Z,75.30
2018-12-27T20:39:59.160Z,75.30
2018-12-27T20:42:03.653Z,76.00
2018-12-27T20:44:08.123Z,75.40
2018-12-27T20:46:12.507Z,75.70
2018-12-27T20:48:17.573Z,76.50
2018-12-27T20:50:22.113Z,75.80
2018-12-27T20:52:27.247Z,75.80
2018-12-27T20:54:31.676Z,75.50
2018-12-27T20:56:36.157Z,75.80
2018-12-27T20:58:40.610Z,75.80
2018-12-27T21:00:45.035Z,75.90
2018-12-27T21:02:49.575Z,76.60
2018-12-27T21:04:54.014Z,75.80
2018-12-27T21:06:59.690Z,76.10
2018-12-27T21:09:03.787Z,76.40
2018-12-27T21:11:08.191Z,76.50
2018-12-27T21:13:12.724Z,76.70
2018-12-27T21:15:17.193Z,76.70
2018-12-27T21:17:21.676Z,76.70
2018-12-27T21:19:26.324Z,76.60
2018-12-27T21:21:30.790Z,76.40
2018-12-27T21:23:35.334Z,76.20
2018-12-27T21:25:39.744Z,76.20
2018-12-27T21:27:44.156Z,76.60
2018-12-27T21:29:48.555Z,76.50
2018-12-27T21:31:53.012Z,76.70
2018-12-27T21:33:57.463Z,76.90
2018-12-27T21:36:01.883Z,77.10
2018-12-27T21:38:06.310Z,76.90
2018-12-27T21:40:10.818Z,76.90
2018-12-27T21:42:15.243Z,76.90
2018-12-27T21:44:20.675Z,76.90
2018-12-27T21:46:25.139Z,76.90
2018-12-27T21:48:30.283Z,76.80
2018-12-27T21:50:34.753Z,76.80
2018-12-27T21:52:39.195Z,76.80
2018-12-27T21:54:43.687Z,76.90
2018-12-27T21:56:48.070Z,76.90
2018-12-27T21:58:52.613Z,76.80
2018-12-27T22:00:57.043Z,77.00
2018-12-27T22:03:01.455Z,77.00
2018-12-27T22:05:05.991Z,76.80
2018-12-27T22:07:10.413Z,76.50
2018-12-27T22:09:14.876Z,77.00
2018-12-27T22:11:19.334Z,76.70
2018-12-27T22:13:23.806Z,77.10
2018-12-27T22:15:28.274Z,77.00
2018-12-27T22:17:33.536Z,76.70
2018-12-27T22:19:38.000Z,76.80
2018-12-27T22:21:42.419Z,76.80
2018-12-27T22:23:46.767Z,76.70
2018-12-27T22:25:51.222Z,76.60
2018-12-27T22:27:55.592Z,76.60
2018-12-27T22:29:59.980Z,76.50
2018-12-27T22:32:04.374Z,76.60
2018-12-27T22:34:08.775Z,76.50
2018-12-27T22:36:13.119Z,76.60
2018-12-27T22:38:17.507Z,76.70
2018-12-27T22:40:21.863Z,76.70
2018-12-27T22:42:26.246Z,76.50
2018-12-27T22:44:30.779Z,76.50
2018-12-27T22:46:35.185Z,77.00
2018-12-27T22:48:39.534Z,77.10
2018-12-27T22:50:43.867Z,77.20
2018-12-27T22:52:48.283Z,77.10
2018-12-27T22:54:52.656Z,77.20
2018-12-27T22:56:57.072Z,77.30
2018-12-27T22:59:01.489Z,77.20
2018-12-27T23:01:05.960Z,77.20
2018-12-27T23:03:10.397Z,77.00
2018-12-27T23:05:14.793Z,77.10
2018-12-27T23:07:19.214Z,77.00
2018-12-27T23:09:23.595Z,77.00
2018-12-27T23:11:28.027Z,76.90
2018-12-27T23:13:32.477Z,76.70
2018-12-27T23:15:37.530Z,76.70
2018-12-27T23:17:42.038Z,76.50
2018-12-27T23:19:46.402Z,76.60
2018-12-27T23:21:50.787Z,76.60
2018-12-27T23:23:55.504Z,76.40
2018-12-27T23:25:59.885Z,76.60
2018-12-27T23:28:04.283Z,76.40
2018-12-27T23:30:09.115Z,76.40
2018-12-27T23:32:13.457Z,76.30
2018-12-27T23:34:17.830Z,76.30
2018-12-27T23:36:22.209Z,76.30
2018-12-27T23:38:26.724Z,76.70
2018-12-27T23:40:31.113Z,76.90
2018-12-27T23:42:35.550Z,77.10
2018-12-27T23:44:40.121Z,77.00
2018-12-27T23:46:44.528Z,77.30
2018-12-27T23:48:56.533Z,77.30
2018-12-27T23:51:00.969Z,77.20
2018-12-27T23:53:05.418Z,77.20
2018-12-27T23:55:09.907Z,77.10
2018-12-27T23:57:14.303Z,76.90
2018-12-27T23:59:18.670Z,77.30
